createdAt,value
2023-04-25T00:00:19.000Z,81.93
2023-04-25T00:01:20.000Z,81.70
2023-04-25T00:02:19.000Z,81.73
2023-04-25T00:03:20.000Z,81.80
2023-04-25T00:04:19.000Z,81.61
2023-04-25T00:05:19.000Z,81.69
2023-04-25T00:06:18.000Z,81.71
2023-04-25T00:07:19.000Z,82.01
2023-04-25T00:08:18.000Z,81.86
2023-04-25T00:09:18.000Z,81.71
2023-04-25T00:10:20.000Z,81.99
2023-04-25T00:11:19.000Z,82.03
2023-04-25T00:12:19.000Z,82.15
2023-04-25T00:13:19.000Z,81.90
2023-04-25T00:14:19.000Z,81.84
2023-04-25T00:15:19.000Z,81.86
2023-04-25T00:16:19.000Z,82.12
2023-04-25T00:17:19.000Z,82.20
2023-04-25T00:18:19.000Z,83.01
2023-04-25T00:19:18.000Z,83.15
2023-04-25T00:20:18.000Z,83.03
2023-04-25T00:21:20.000Z,83.54
2023-04-25T00:22:18.000Z,83.12
2023-04-25T00:23:18.000Z,82.93
2023-04-25T00:24:19.000Z,83.21
2023-04-25T00:25:18.000Z,83.08
2023-04-25T00:26:18.000Z,82.98
2023-04-25T00:27:18.000Z,82.55
2023-04-25T00:28:18.000Z,82.63
2023-04-25T00:29:18.000Z,82.60
2023-04-25T00:30:18.000Z,82.53
2023-04-25T00:31:18.000Z,82.49
2023-04-25T00:32:18.000Z,82.44
2023-04-25T00:33:18.000Z,82.36
2023-04-25T00:34:18.000Z,82.42
2023-04-25T00:35:18.000Z,82.76
2023-04-25T00:36:18.000Z,82.35
2023-04-25T00:37:19.000Z,82.49
2023-04-25T00:38:18.000Z,82.56
2023-04-25T00:39:18.000Z,82.42
2023-04-25T00:40:18.000Z,83.34
2023-04-25T00:41:19.000Z,83.11
2023-04-25T00:42:19.000Z,83.08
2023-04-25T00:43:18.000Z,82.94
2023-04-25T00:44:19.000Z,82.97
2023-04-25T00:45:19.000Z,82.66
2023-04-25T00:46:18.000Z,82.62
2023-04-25T00:47:18.000Z,82.73
2023-04-25T00:48:21.000Z,82.62
2023-04-25T00:49:18.000Z,82.70
2023-04-25T00:50:18.000Z,82.64
2023-04-25T00:51:20.000Z,82.62
2023-04-25T00:52:19.000Z,82.38
2023-04-25T00:53:19.000Z,82.39
2023-04-25T00:54:18.000Z,82.22
2023-04-25T00:55:19.000Z,82.23
2023-04-25T00:56:19.000Z,82.39
2023-04-25T00:57:18.000Z,82.50
2023-04-25T00:58:20.000Z,82.53
2023-04-25T00:59:20.000Z,82.53
2023-04-25T01:00:20.000Z,82.53
2023-04-25T01:01:19.000Z,82.94
2023-04-25T01:02:19.000Z,82.53
2023-04-25T01:03:21.000Z,82.35
2023-04-25T01:04:18.000Z,82.41
2023-04-25T01:05:18.000Z,82.48
2023-04-25T01:06:19.000Z,82.33
2023-04-25T01:07:19.000Z,82.17
2023-04-25T01:08:23.000Z,81.99
2023-04-25T01:09:19.000Z,81.92
2023-04-25T01:10:18.000Z,82.16
2023-04-25T01:11:19.000Z,82.03
2023-04-25T01:12:18.000Z,82.06
2023-04-25T01:13:18.000Z,82.23
2023-04-25T01:14:18.000Z,82.10
2023-04-25T01:15:18.000Z,82.09
2023-04-25T01:16:18.000Z,82.15
2023-04-25T01:17:19.000Z,82.13
2023-04-25T01:18:18.000Z,81.91
2023-04-25T01:19:18.000Z,81.88
2023-04-25T01:20:20.000Z,81.87
2023-04-25T01:21:18.000Z,81.82
2023-04-25T01:22:18.000Z,81.67
2023-04-25T01:23:22.000Z,81.71
2023-04-25T01:24:18.000Z,81.64
2023-04-25T01:25:18.000Z,82.08
2023-04-25T01:26:20.000Z,81.86
2023-04-25T01:27:18.000Z,82.18
2023-04-25T01:28:18.000Z,82.05
2023-04-25T01:29:19.000Z,81.99
2023-04-25T01:30:18.000Z,82.44
2023-04-25T01:31:18.000Z,82.04
2023-04-25T01:32:18.000Z,81.91
2023-04-25T01:33:20.000Z,81.84
2023-04-25T01:34:18.000Z,81.77
2023-04-25T01:35:18.000Z,81.77
2023-04-25T01:36:18.000Z,81.95
2023-04-25T01:37:18.000Z,81.62
2023-04-25T01:38:18.000Z,81.63
2023-04-25T01:39:18.000Z,81.74
2023-04-25T01:40:20.000Z,81.72
2023-04-25T01:41:18.000Z,81.85
2023-04-25T01:42:18.000Z,81.84
2023-04-25T01:43:18.000Z,81.73
2023-04-25T01:44:18.000Z,81.77
2023-04-25T01:45:18.000Z,81.64
2023-04-25T01:46:18.000Z,81.64
2023-04-25T01:47:18.000Z,81.62
2023-04-25T01:48:18.000Z,81.62
2023-04-25T01:49:19.000Z,81.67
2023-04-25T01:50:19.000Z,81.75
2023-04-25T01:51:19.000Z,81.89
2023-04-25T01:52:18.000Z,81.81
2023-04-25T01:53:19.000Z,81.70
2023-04-25T01:54:18.000Z,81.79
2023-04-25T01:55:18.000Z,82.10
2023-04-25T01:56:19.000Z,82.26
2023-04-25T01:57:18.000Z,82.17
2023-04-25T01:58:18.000Z,82.31
2023-04-25T01:59:19.000Z,82.18
2023-04-25T02:00:18.000Z,82.94
2023-04-25T02:01:18.000Z,82.40
2023-04-25T02:02:19.000Z,82.97
2023-04-25T02:03:18.000Z,82.62
2023-04-25T02:04:18.000Z,82.82
2023-04-25T02:05:19.000Z,82.85
2023-04-25T02:06:18.000Z,83.21
2023-04-25T02:07:18.000Z,83.18
2023-04-25T02:08:18.000Z,83.47
2023-04-25T02:09:18.000Z,83.28
2023-04-25T02:10:18.000Z,83.06
2023-04-25T02:11:18.000Z,83.10
2023-04-25T02:12:18.000Z,82.96
2023-04-25T02:13:18.000Z,83.23
2023-04-25T02:14:18.000Z,83.90
2023-04-25T02:15:18.000Z,83.07
2023-04-25T02:16:18.000Z,83.00
2023-04-25T02:17:18.000Z,83.38
2023-04-25T02:18:20.000Z,83.61
2023-04-25T02:19:18.000Z,83.62
2023-04-25T02:20:21.000Z,83.60
2023-04-25T02:21:19.000Z,83.66
2023-04-25T02:22:18.000Z,83.89
2023-04-25T02:23:18.000Z,83.69
2023-04-25T02:24:18.000Z,83.54
2023-04-25T02:25:19.000Z,83.79
2023-04-25T02:26:18.000Z,83.77
2023-04-25T02:27:18.000Z,83.85
2023-04-25T02:28:18.000Z,83.92
2023-04-25T02:29:18.000Z,83.99
2023-04-25T02:30:18.000Z,84.32
2023-04-25T02:31:18.000Z,83.87
2023-04-25T02:32:18.000Z,84.03
2023-04-25T02:33:18.000Z,84.09
2023-04-25T02:34:18.000Z,84.01
2023-04-25T02:35:18.000Z,84.20
2023-04-25T02:36:18.000Z,84.05
2023-04-25T02:37:18.000Z,84.10
2023-04-25T02:38:18.000Z,84.40
2023-04-25T02:39:18.000Z,84.38
2023-04-25T02:40:18.000Z,84.31
2023-04-25T02:41:18.000Z,84.39
2023-04-25T02:42:18.000Z,84.85
2023-04-25T02:43:18.000Z,85.57
2023-04-25T02:44:18.000Z,85.46
2023-04-25T02:45:18.000Z,85.30
2023-04-25T02:46:18.000Z,84.65
2023-04-25T02:47:18.000Z,84.87
2023-04-25T02:48:18.000Z,85.02
2023-04-25T02:49:18.000Z,84.63
2023-04-25T02:50:18.000Z,84.78
2023-04-25T02:51:17.000Z,84.90
2023-04-25T02:52:18.000Z,85.51
2023-04-25T02:53:17.000Z,85.12
2023-04-25T02:54:18.000Z,85.55
2023-04-25T02:55:18.000Z,85.19
2023-04-25T02:56:17.000Z,85.23
2023-04-25T02:57:18.000Z,85.48
2023-04-25T02:58:18.000Z,85.57
2023-04-25T02:59:18.000Z,85.88
2023-04-25T03:00:17.000Z,85.56
2023-04-25T03:01:17.000Z,86.19
2023-04-25T03:02:18.000Z,86.40
2023-04-25T03:03:20.000Z,85.94
2023-04-25T03:04:18.000Z,86.45
2023-04-25T03:05:18.000Z,86.67
2023-04-25T03:06:18.000Z,86.96
2023-04-25T03:07:18.000Z,86.90
2023-04-25T03:08:18.000Z,86.44
2023-04-25T03:09:18.000Z,87.59
2023-04-25T03:10:18.000Z,86.87
2023-04-25T03:11:19.000Z,87.65
2023-04-25T03:12:18.000Z,86.93
2023-04-25T03:13:18.000Z,87.40
2023-04-25T03:14:18.000Z,87.30
2023-04-25T03:15:18.000Z,87.35
2023-04-25T03:16:18.000Z,87.50
2023-04-25T03:17:18.000Z,87.84
2023-04-25T03:18:18.000Z,87.31
2023-04-25T03:19:18.000Z,86.72
2023-04-25T03:20:17.000Z,86.74
2023-04-25T03:21:17.000Z,86.89
2023-04-25T03:22:17.000Z,86.82
2023-04-25T03:23:17.000Z,86.72
2023-04-25T03:24:17.000Z,86.75
2023-04-25T03:25:18.000Z,86.99
2023-04-25T03:26:17.000Z,86.59
2023-04-25T03:27:17.000Z,86.54
2023-04-25T03:28:17.000Z,86.53
2023-04-25T03:29:17.000Z,87.54
2023-04-25T03:30:17.000Z,86.86
2023-04-25T03:31:18.000Z,87.36
2023-04-25T03:32:17.000Z,87.39
2023-04-25T03:33:17.000Z,86.91
2023-04-25T03:34:17.000Z,86.75
2023-04-25T03:35:17.000Z,86.54
2023-04-25T03:36:17.000Z,86.88
2023-04-25T03:37:17.000Z,87.43
2023-04-25T03:38:18.000Z,87.47
2023-04-25T03:39:17.000Z,88.20
2023-04-25T03:40:17.000Z,87.26
2023-04-25T03:41:18.000Z,86.80
2023-04-25T03:42:18.000Z,87.22
2023-04-25T03:43:17.000Z,86.70
2023-04-25T03:44:17.000Z,87.15
2023-04-25T03:45:18.000Z,87.60
2023-04-25T03:46:17.000Z,86.94
2023-04-25T03:47:17.000Z,87.17
2023-04-25T03:48:20.000Z,86.74
2023-04-25T03:49:18.000Z,86.76
2023-04-25T03:50:17.000Z,86.88
2023-04-25T03:51:17.000Z,86.50
2023-04-25T03:52:17.000Z,86.58
2023-04-25T03:53:18.000Z,86.47
2023-04-25T03:54:17.000Z,87.33
2023-04-25T03:55:18.000Z,87.00
2023-04-25T03:56:18.000Z,86.90
2023-04-25T03:57:17.000Z,87.32
2023-04-25T03:58:18.000Z,86.99
2023-04-25T03:59:17.000Z,86.96
2023-04-25T04:00:17.000Z,86.96
2023-04-25T04:01:17.000Z,86.95
2023-04-25T04:02:17.000Z,86.72
2023-04-25T04:03:17.000Z,86.73
2023-04-25T04:04:17.000Z,86.84
2023-04-25T04:05:17.000Z,86.72
2023-04-25T04:06:19.000Z,86.57
2023-04-25T04:07:18.000Z,86.76
2023-04-25T04:08:17.000Z,86.64
2023-04-25T04:09:18.000Z,86.32
2023-04-25T04:10:18.000Z,86.55
2023-04-25T04:11:17.000Z,86.53
2023-04-25T04:12:17.000Z,86.49
2023-04-25T04:13:17.000Z,86.75
2023-04-25T04:14:17.000Z,86.71
2023-04-25T04:15:18.000Z,86.82
2023-04-25T04:16:17.000Z,86.84
2023-04-25T04:17:17.000Z,86.68
2023-04-25T04:18:18.000Z,86.97
2023-04-25T04:19:17.000Z,86.46
2023-04-25T04:20:17.000Z,86.87
2023-04-25T04:21:18.000Z,87.70
2023-04-25T04:22:18.000Z,87.21
2023-04-25T04:23:18.000Z,86.73
2023-04-25T04:24:18.000Z,86.60
2023-04-25T04:25:18.000Z,86.76
2023-04-25T04:26:18.000Z,87.11
2023-04-25T04:27:18.000Z,86.76
2023-04-25T04:28:18.000Z,87.65
2023-04-25T04:29:20.000Z,87.30
2023-04-25T04:30:18.000Z,87.21
2023-04-25T04:31:22.000Z,87.20
2023-04-25T04:32:18.000Z,86.88
2023-04-25T04:33:18.000Z,86.73
2023-04-25T04:34:18.000Z,87.55
2023-04-25T04:35:19.000Z,88.44
2023-04-25T04:36:22.000Z,87.30
2023-04-25T04:37:18.000Z,87.41
2023-04-25T04:38:19.000Z,87.32
2023-04-25T04:39:18.000Z,87.19
2023-04-25T04:40:18.000Z,86.95
2023-04-25T04:41:18.000Z,86.87
2023-04-25T04:42:18.000Z,86.84
2023-04-25T04:43:18.000Z,87.14
2023-04-25T04:44:18.000Z,86.92
2023-04-25T04:45:17.000Z,86.84
2023-04-25T04:46:18.000Z,86.72
2023-04-25T04:47:19.000Z,87.07
2023-04-25T04:48:18.000Z,87.01
2023-04-25T04:49:20.000Z,86.97
2023-04-25T04:50:18.000Z,86.94
2023-04-25T04:51:19.000Z,87.01
2023-04-25T04:52:18.000Z,87.21
2023-04-25T04:53:18.000Z,87.10
2023-04-25T04:54:18.000Z,87.46
2023-04-25T04:55:18.000Z,87.63
2023-04-25T04:56:20.000Z,87.07
2023-04-25T04:57:18.000Z,86.83
2023-04-25T04:58:18.000Z,86.85
2023-04-25T04:59:18.000Z,87.03
2023-04-25T05:00:18.000Z,86.90
2023-04-25T05:01:18.000Z,86.61
2023-04-25T05:02:18.000Z,86.89
2023-04-25T05:03:18.000Z,86.59
2023-04-25T05:04:18.000Z,86.42
2023-04-25T05:05:18.000Z,86.50
2023-04-25T05:06:18.000Z,86.76
2023-04-25T05:07:18.000Z,86.73
2023-04-25T05:08:18.000Z,86.78
2023-04-25T05:09:19.000Z,87.50
2023-04-25T05:10:19.000Z,86.86
2023-04-25T05:11:19.000Z,86.74
2023-04-25T05:12:18.000Z,87.53
2023-04-25T05:13:18.000Z,87.35
2023-04-25T05:14:18.000Z,86.90
2023-04-25T05:15:18.000Z,86.90
2023-04-25T05:16:19.000Z,87.01
2023-04-25T05:17:18.000Z,87.82
2023-04-25T05:18:18.000Z,87.78
2023-04-25T05:19:18.000Z,87.27
2023-04-25T05:20:18.000Z,86.84
2023-04-25T05:21:18.000Z,86.93
2023-04-25T05:22:18.000Z,87.09
2023-04-25T05:23:17.000Z,86.78
2023-04-25T05:24:17.000Z,86.43
2023-04-25T05:25:18.000Z,86.28
2023-04-25T05:26:17.000Z,86.81
2023-04-25T05:27:17.000Z,86.95
2023-04-25T05:28:18.000Z,87.60
2023-04-25T05:29:17.000Z,87.25
2023-04-25T05:30:18.000Z,87.63
2023-04-25T05:31:17.000Z,87.86
2023-04-25T05:32:18.000Z,87.67
2023-04-25T05:33:18.000Z,87.73
2023-04-25T05:34:18.000Z,87.48
2023-04-25T05:35:18.000Z,87.28
2023-04-25T05:36:18.000Z,87.28
2023-04-25T05:37:18.000Z,87.42
2023-04-25T05:38:17.000Z,87.49
2023-04-25T05:39:18.000Z,87.53
2023-04-25T05:40:17.000Z,87.90
2023-04-25T05:41:17.000Z,87.44
2023-04-25T05:42:17.000Z,87.18
2023-04-25T05:43:17.000Z,86.92
2023-04-25T05:44:18.000Z,86.73
2023-04-25T05:45:17.000Z,86.59
2023-04-25T05:46:17.000Z,87.37
2023-04-25T05:47:17.000Z,87.14
2023-04-25T05:48:17.000Z,86.80
2023-04-25T05:49:18.000Z,86.63
2023-04-25T05:50:18.000Z,87.38
2023-04-25T05:51:17.000Z,87.28
2023-04-25T05:52:17.000Z,87.25
2023-04-25T05:53:18.000Z,87.52
2023-04-25T05:54:17.000Z,87.82
2023-04-25T05:55:18.000Z,88.47
2023-04-25T05:56:17.000Z,88.60
2023-04-25T05:57:23.000Z,88.13
2023-04-25T05:58:17.000Z,88.11
2023-04-25T05:59:18.000Z,88.40
2023-04-25T06:00:18.000Z,87.82
2023-04-25T06:01:17.000Z,87.68
2023-04-25T06:02:19.000Z,87.43
2023-04-25T06:03:18.000Z,87.71
2023-04-25T06:04:18.000Z,87.99
2023-04-25T06:05:17.000Z,87.40
2023-04-25T06:06:18.000Z,87.76
2023-04-25T06:07:18.000Z,88.09
2023-04-25T06:08:18.000Z,88.59
2023-04-25T06:09:17.000Z,88.16
2023-04-25T06:10:18.000Z,87.96
2023-04-25T06:11:18.000Z,88.44
2023-04-25T06:12:18.000Z,88.52
2023-04-25T06:13:18.000Z,88.84
2023-04-25T06:14:18.000Z,88.80
2023-04-25T06:15:18.000Z,88.78
2023-04-25T06:16:18.000Z,88.77
2023-04-25T06:17:17.000Z,88.65
2023-04-25T06:18:17.000Z,88.82
2023-04-25T06:19:18.000Z,88.37
2023-04-25T06:20:22.000Z,88.76
2023-04-25T06:21:18.000Z,88.69
2023-04-25T06:22:18.000Z,89.09
2023-04-25T06:23:18.000Z,88.80
2023-04-25T06:24:18.000Z,88.55
2023-04-25T06:25:17.000Z,89.28
2023-04-25T06:26:18.000Z,88.83
2023-04-25T06:27:17.000Z,89.45
2023-04-25T06:28:18.000Z,89.42
2023-04-25T06:29:18.000Z,89.33
2023-04-25T06:30:22.000Z,88.97
2023-04-25T06:31:17.000Z,88.64
2023-04-25T06:32:17.000Z,88.68
2023-04-25T06:33:17.000Z,88.41
2023-04-25T06:34:17.000Z,88.31
2023-04-25T06:35:18.000Z,88.31
2023-04-25T06:36:20.000Z,88.36
2023-04-25T06:37:17.000Z,88.11
2023-04-25T06:38:17.000Z,88.22
2023-04-25T06:39:19.000Z,88.46
2023-04-25T06:40:18.000Z,88.22
2023-04-25T06:41:18.000Z,88.19
2023-04-25T06:42:17.000Z,88.75
2023-04-25T06:43:17.000Z,88.49
2023-04-25T06:44:17.000Z,88.19
2023-04-25T06:45:17.000Z,88.02
2023-04-25T06:46:18.000Z,88.52
2023-04-25T06:47:17.000Z,88.29
2023-04-25T06:48:17.000Z,88.22
2023-04-25T06:49:19.000Z,88.84
2023-04-25T06:50:17.000Z,88.82
2023-04-25T06:51:17.000Z,89.13
2023-04-25T06:52:17.000Z,88.92
2023-04-25T06:53:18.000Z,88.61
2023-04-25T06:54:17.000Z,88.95
2023-04-25T06:55:17.000Z,88.68
2023-04-25T06:56:17.000Z,89.21
2023-04-25T06:57:17.000Z,89.48
2023-04-25T06:58:17.000Z,88.86
2023-04-25T06:59:17.000Z,89.02
2023-04-25T07:00:18.000Z,89.07
2023-04-25T07:01:17.000Z,89.29
2023-04-25T07:02:17.000Z,89.33
2023-04-25T07:03:19.000Z,89.94
2023-04-25T07:04:17.000Z,89.70
2023-04-25T07:05:17.000Z,89.96
2023-04-25T07:06:17.000Z,89.89
2023-04-25T07:07:17.000Z,90.38
2023-04-25T07:08:17.000Z,89.72
2023-04-25T07:09:17.000Z,89.65
2023-04-25T07:10:17.000Z,89.88
2023-04-25T07:11:17.000Z,89.96
2023-04-25T07:12:17.000Z,89.57
2023-04-25T07:13:17.000Z,90.08
2023-04-25T07:14:17.000Z,90.36
2023-04-25T07:15:17.000Z,90.09
2023-04-25T07:16:17.000Z,91.11
2023-04-25T07:17:17.000Z,90.54
2023-04-25T07:18:17.000Z,90.53
2023-04-25T07:19:17.000Z,89.87
2023-04-25T07:20:17.000Z,89.93
2023-04-25T07:21:17.000Z,89.32
2023-04-25T07:22:17.000Z,90.34
2023-04-25T07:23:17.000Z,89.99
2023-04-25T07:24:17.000Z,90.20
2023-04-25T07:25:18.000Z,89.37
2023-04-25T07:26:18.000Z,88.45
2023-04-25T07:27:18.000Z,89.29
2023-04-25T07:28:18.000Z,88.78
2023-04-25T07:29:17.000Z,88.69
2023-04-25T07:30:18.000Z,89.68
2023-04-25T07:31:18.000Z,90.05
2023-04-25T07:32:18.000Z,88.99
2023-04-25T07:33:19.000Z,90.31
2023-04-25T07:34:17.000Z,90.36
2023-04-25T07:35:17.000Z,88.77
2023-04-25T07:36:17.000Z,88.76
2023-04-25T07:37:18.000Z,88.46
2023-04-25T07:38:17.000Z,88.90
2023-04-25T07:39:18.000Z,89.04
2023-04-25T07:40:18.000Z,88.76
2023-04-25T07:41:17.000Z,89.05
2023-04-25T07:42:18.000Z,90.31
2023-04-25T07:43:18.000Z,90.22
2023-04-25T07:44:17.000Z,88.85
2023-04-25T07:45:17.000Z,89.30
2023-04-25T07:46:17.000Z,89.36
2023-04-25T07:47:20.000Z,89.20
2023-04-25T07:48:18.000Z,88.68
2023-04-25T07:49:18.000Z,88.78
2023-04-25T07:50:18.000Z,88.60
2023-04-25T07:51:19.000Z,86.84
2023-04-25T07:52:17.000Z,86.21
2023-04-25T07:53:18.000Z,85.93
2023-04-25T07:54:18.000Z,85.83
2023-04-25T07:55:18.000Z,84.60
2023-04-25T07:56:17.000Z,85.21
2023-04-25T07:57:18.000Z,85.79
2023-04-25T07:58:21.000Z,86.72
2023-04-25T07:59:17.000Z,86.21
2023-04-25T08:00:18.000Z,86.41
2023-04-25T08:01:20.000Z,87.24
2023-04-25T08:02:17.000Z,86.55
2023-04-25T08:03:17.000Z,87.13
2023-04-25T08:04:17.000Z,87.15
2023-04-25T08:05:17.000Z,86.80
2023-04-25T08:06:17.000Z,87.26
2023-04-25T08:07:17.000Z,86.96
2023-04-25T08:08:17.000Z,87.75
2023-04-25T08:09:18.000Z,84.39
2023-04-25T08:10:17.000Z,85.90
2023-04-25T08:11:17.000Z,87.54
2023-04-25T08:12:17.000Z,85.80
2023-04-25T08:13:17.000Z,85.17
2023-04-25T08:14:17.000Z,84.68
2023-04-25T08:15:18.000Z,83.95
2023-04-25T08:16:17.000Z,85.78
2023-04-25T08:17:17.000Z,84.94
2023-04-25T08:18:18.000Z,85.09
2023-04-25T08:19:17.000Z,85.66
2023-04-25T08:20:17.000Z,86.03
2023-04-25T08:21:18.000Z,85.48
2023-04-25T08:22:18.000Z,85.85
2023-04-25T08:23:18.000Z,86.52
2023-04-25T08:24:17.000Z,86.02
2023-04-25T08:25:18.000Z,86.04
2023-04-25T08:26:17.000Z,86.19
2023-04-25T08:27:18.000Z,87.60
2023-04-25T08:28:17.000Z,87.05
2023-04-25T08:29:17.000Z,85.69
2023-04-25T08:30:18.000Z,87.40
2023-04-25T08:31:17.000Z,86.85
2023-04-25T08:32:18.000Z,86.42
2023-04-25T08:33:17.000Z,86.99
2023-04-25T08:34:18.000Z,86.85
2023-04-25T08:35:17.000Z,87.20
2023-04-25T08:36:18.000Z,86.21
2023-04-25T08:37:19.000Z,86.72
2023-04-25T08:38:17.000Z,85.95
2023-04-25T08:39:17.000Z,85.39
2023-04-25T08:40:18.000Z,87.75
2023-04-25T08:41:19.000Z,87.48
2023-04-25T08:42:19.000Z,87.89
2023-04-25T08:43:19.000Z,87.60
2023-04-25T08:44:18.000Z,86.61
2023-04-25T08:45:18.000Z,86.04
2023-04-25T08:46:18.000Z,86.15
2023-04-25T08:47:21.000Z,85.69
2023-04-25T08:48:17.000Z,86.43
2023-04-25T08:49:18.000Z,86.40
2023-04-25T08:50:22.000Z,85.97
2023-04-25T08:51:22.000Z,85.63
2023-04-25T08:52:21.000Z,85.62
2023-04-25T08:53:25.000Z,84.64
2023-04-25T08:54:19.000Z,81.54
2023-04-25T08:55:19.000Z,82.90
2023-04-25T08:56:20.000Z,82.70
2023-04-25T08:57:19.000Z,79.62
2023-04-25T08:58:19.000Z,80.99
2023-04-25T08:59:19.000Z,82.66
2023-04-25T09:00:18.000Z,84.12
2023-04-25T09:01:20.000Z,80.46
2023-04-25T09:02:21.000Z,81.70
2023-04-25T09:03:18.000Z,79.84
2023-04-25T09:04:19.000Z,82.63
2023-04-25T09:05:18.000Z,79.22
2023-04-25T09:06:19.000Z,77.89
2023-04-25T09:07:21.000Z,80.40
2023-04-25T09:08:18.000Z,79.63
2023-04-25T09:09:18.000Z,80.36
2023-04-25T09:10:18.000Z,79.13
2023-04-25T09:11:18.000Z,79.62
2023-04-25T09:12:19.000Z,80.48
2023-04-25T09:13:25.000Z,80.30
2023-04-25T09:14:22.000Z,79.12
2023-04-25T09:15:18.000Z,79.72
2023-04-25T09:16:21.000Z,78.56
2023-04-25T09:17:18.000Z,78.63
2023-04-25T09:18:27.000Z,79.58
2023-04-25T09:19:26.000Z,78.84
2023-04-25T09:20:18.000Z,78.14
2023-04-25T09:21:22.000Z,79.14
2023-04-25T09:22:21.000Z,80.00
2023-04-25T09:23:20.000Z,79.00
2023-04-25T09:24:28.000Z,79.31
2023-04-25T09:25:18.000Z,79.88
2023-04-25T09:26:20.000Z,78.35
2023-04-25T09:27:19.000Z,80.37
2023-04-25T09:28:23.000Z,78.97
2023-04-25T09:29:17.000Z,78.74
2023-04-25T09:30:18.000Z,78.22
2023-04-25T09:31:22.000Z,77.82
2023-04-25T09:32:23.000Z,78.00
2023-04-25T09:33:18.000Z,77.60
2023-04-25T09:34:18.000Z,77.66
2023-04-25T09:35:25.000Z,76.87
2023-04-25T09:36:25.000Z,76.37
2023-04-25T09:37:20.000Z,76.99
2023-04-25T09:38:18.000Z,77.60
2023-04-25T09:39:20.000Z,75.51
2023-04-25T09:40:17.000Z,75.14
2023-04-25T09:41:23.000Z,76.08
2023-04-25T09:42:21.000Z,77.49
2023-04-25T09:43:19.000Z,77.37
2023-04-25T09:44:23.000Z,75.97
2023-04-25T09:45:18.000Z,74.67
2023-04-25T09:46:23.000Z,74.70
2023-04-25T09:47:22.000Z,75.13
2023-04-25T09:48:20.000Z,74.60
2023-04-25T09:49:19.000Z,75.19
2023-04-25T09:50:18.000Z,75.07
2023-04-25T09:51:17.000Z,75.33
2023-04-25T09:52:20.000Z,73.74
2023-04-25T09:53:17.000Z,73.95
2023-04-25T09:54:17.000Z,74.54
2023-04-25T09:55:18.000Z,73.77
2023-04-25T09:56:19.000Z,73.31
2023-04-25T09:57:22.000Z,71.87
2023-04-25T09:58:18.000Z,70.67
2023-04-25T09:59:21.000Z,72.45
2023-04-25T10:00:19.000Z,70.69
2023-04-25T10:01:19.000Z,71.15
2023-04-25T10:02:22.000Z,71.39
2023-04-25T10:03:21.000Z,71.14
2023-04-25T10:04:24.000Z,69.68
2023-04-25T10:05:18.000Z,70.07
2023-04-25T10:06:20.000Z,69.66
2023-04-25T10:07:19.000Z,68.62
2023-04-25T10:08:19.000Z,69.57
2023-04-25T10:09:25.000Z,70.98
2023-04-25T10:10:19.000Z,68.43
2023-04-25T10:11:18.000Z,69.22
2023-04-25T10:12:18.000Z,69.29
2023-04-25T10:13:18.000Z,69.83
2023-04-25T10:14:18.000Z,69.69
2023-04-25T10:15:19.000Z,69.41
2023-04-25T10:16:19.000Z,68.44
2023-04-25T10:17:19.000Z,69.88
2023-04-25T10:18:20.000Z,69.09
2023-04-25T10:19:18.000Z,68.58
2023-04-25T10:20:18.000Z,70.80
2023-04-25T10:21:20.000Z,68.23
2023-04-25T10:22:28.000Z,68.66
2023-04-25T10:23:19.000Z,69.69
2023-04-25T10:24:19.000Z,70.10
2023-04-25T10:25:18.000Z,70.13
2023-04-25T10:26:18.000Z,69.99
2023-04-25T10:27:18.000Z,69.86
2023-04-25T10:28:20.000Z,69.03
2023-04-25T10:29:22.000Z,69.47
2023-04-25T10:30:17.000Z,69.45
2023-04-25T10:31:17.000Z,69.90
2023-04-25T10:32:17.000Z,70.24
2023-04-25T10:33:28.000Z,70.74
2023-04-25T10:34:18.000Z,70.82
2023-04-25T10:35:23.000Z,71.06
2023-04-25T10:36:19.000Z,70.91
2023-04-25T10:37:18.000Z,70.96
2023-04-25T10:38:17.000Z,71.29
2023-04-25T10:39:22.000Z,71.29
2023-04-25T10:40:21.000Z,70.75
2023-04-25T10:41:19.000Z,71.22
2023-04-25T10:42:17.000Z,70.73
2023-04-25T10:43:27.000Z,70.91
2023-04-25T10:44:17.000Z,69.71
2023-04-25T10:45:19.000Z,70.72
2023-04-25T10:46:25.000Z,69.66
2023-04-25T10:47:34.000Z,69.71
2023-04-25T10:48:25.000Z,69.57
2023-04-25T10:49:27.000Z,69.85
2023-04-25T10:50:19.000Z,70.74
2023-04-25T10:51:26.000Z,70.84
2023-04-25T10:52:26.000Z,69.62
2023-04-25T10:53:17.000Z,69.11
2023-04-25T10:54:18.000Z,68.77
2023-04-25T10:55:19.000Z,68.82
2023-04-25T10:56:24.000Z,68.70
2023-04-25T10:57:27.000Z,69.10
2023-04-25T10:58:21.000Z,69.16
2023-04-25T10:59:19.000Z,69.47
2023-04-25T11:00:24.000Z,70.04
2023-04-25T11:01:24.000Z,69.48
2023-04-25T11:02:18.000Z,68.63
2023-04-25T11:03:21.000Z,69.19
2023-04-25T11:04:23.000Z,69.42
2023-04-25T11:05:29.000Z,69.01
2023-04-25T11:06:28.000Z,68.69
2023-04-25T11:07:31.000Z,67.16
2023-04-25T11:08:36.000Z,64.46
2023-04-25T11:09:18.000Z,64.15
2023-04-25T11:10:25.000Z,64.56
2023-04-25T11:11:19.000Z,65.14
2023-04-25T11:12:18.000Z,63.97
2023-04-25T11:13:20.000Z,63.52
2023-04-25T11:14:19.000Z,63.94
2023-04-25T11:15:18.000Z,64.71
2023-04-25T11:16:18.000Z,63.72
2023-04-25T11:17:18.000Z,64.03
2023-04-25T11:18:18.000Z,64.88
2023-04-25T11:19:19.000Z,65.52
2023-04-25T11:20:18.000Z,65.07
2023-04-25T11:21:18.000Z,64.83
2023-04-25T11:22:18.000Z,65.28
2023-04-25T11:23:18.000Z,65.26
2023-04-25T11:24:18.000Z,65.80
2023-04-25T11:25:18.000Z,66.37
2023-04-25T11:26:22.000Z,66.21
2023-04-25T11:27:53.000Z,67.53
2023-04-25T11:28:44.000Z,67.91
2023-04-25T11:29:44.000Z,68.46
2023-04-25T11:30:50.000Z,68.36
2023-04-25T11:31:20.000Z,67.52
2023-04-25T11:32:19.000Z,67.72
2023-04-25T11:33:23.000Z,67.77
2023-04-25T11:34:19.000Z,67.67
2023-04-25T11:35:22.000Z,67.68
2023-04-25T11:36:21.000Z,67.84
2023-04-25T11:37:20.000Z,69.54
2023-04-25T11:38:19.000Z,68.72
2023-04-25T11:39:20.000Z,67.28
2023-04-25T11:40:19.000Z,67.99
2023-04-25T11:41:21.000Z,67.15
2023-04-25T11:42:19.000Z,67.11
2023-04-25T11:43:22.000Z,67.03
2023-04-25T11:44:21.000Z,67.49
2023-04-25T11:45:22.000Z,67.13
2023-04-25T11:46:20.000Z,66.04
2023-04-25T11:47:27.000Z,66.87
2023-04-25T11:48:19.000Z,68.71
2023-04-25T11:49:21.000Z,68.58
2023-04-25T11:50:19.000Z,67.52
2023-04-25T11:51:19.000Z,68.80
2023-04-25T11:52:19.000Z,69.87
2023-04-25T11:53:19.000Z,68.68
2023-04-25T11:54:19.000Z,67.52
2023-04-25T11:55:19.000Z,67.10
2023-04-25T11:56:19.000Z,68.47
2023-04-25T11:57:19.000Z,67.68
2023-04-25T11:58:19.000Z,68.65
2023-04-25T11:59:23.000Z,67.19
2023-04-25T12:00:20.000Z,66.91
2023-04-25T12:01:28.000Z,67.28
2023-04-25T12:02:24.000Z,67.02
2023-04-25T12:03:21.000Z,65.43
2023-04-25T12:04:24.000Z,65.63
2023-04-25T12:05:24.000Z,66.03
2023-04-25T12:06:20.000Z,64.77
2023-04-25T12:07:28.000Z,65.80
2023-04-25T12:08:20.000Z,65.06
2023-04-25T12:09:28.000Z,64.23
2023-04-25T12:10:21.000Z,64.30
2023-04-25T12:11:21.000Z,64.83
2023-04-25T12:12:20.000Z,64.74
2023-04-25T12:13:25.000Z,64.51
2023-04-25T12:14:28.000Z,64.64
2023-04-25T12:15:24.000Z,64.12
2023-04-25T12:16:20.000Z,63.51
2023-04-25T12:17:22.000Z,64.54
2023-04-25T12:18:23.000Z,64.49
2023-04-25T12:19:20.000Z,64.16
2023-04-25T12:20:24.000Z,64.01
2023-04-25T12:21:20.000Z,64.37
2023-04-25T12:22:23.000Z,64.65
2023-04-25T12:23:28.000Z,64.20
2023-04-25T12:24:25.000Z,64.68
2023-04-25T12:25:30.000Z,64.43
2023-04-25T12:26:20.000Z,64.20
2023-04-25T12:27:20.000Z,63.71
2023-04-25T12:28:22.000Z,64.70
2023-04-25T12:29:23.000Z,64.95
2023-04-25T12:30:20.000Z,64.98
2023-04-25T12:31:21.000Z,65.01
2023-04-25T12:32:24.000Z,64.95
2023-04-25T12:33:21.000Z,64.95
2023-04-25T12:34:21.000Z,64.78
2023-04-25T12:35:20.000Z,65.08
2023-04-25T12:36:20.000Z,65.34
2023-04-25T12:37:20.000Z,64.80
2023-04-25T12:38:28.000Z,64.00
2023-04-25T12:39:23.000Z,63.54
2023-04-25T12:40:20.000Z,64.25
2023-04-25T12:41:20.000Z,65.35
2023-04-25T12:42:20.000Z,64.65
2023-04-25T12:43:20.000Z,64.52
2023-04-25T12:44:20.000Z,64.90
2023-04-25T12:45:20.000Z,64.49
2023-04-25T12:46:20.000Z,65.09
2023-04-25T12:47:20.000Z,65.76
2023-04-25T12:48:21.000Z,64.56
2023-04-25T12:49:20.000Z,64.66
2023-04-25T12:50:20.000Z,64.51
2023-04-25T12:51:20.000Z,64.33
2023-04-25T12:52:20.000Z,63.81